Time;durP1;ratioP1;P1;durP2;ratioP2;P2;SDS_P1;SDS_P2;PMS_P1;PMS_P2;Temp;Humidity;BMP_temperature;BMP_pressure;BME280_temperature;BME280_humidity;BME280_pressure;Samples;Min_cycle;Max_cycle;Signal;HPM_P1;HPM_P2
2021/09/09 00:02:25;;;;;;;15.55;11.65;;;;;;;16.31;63.35;98937.63;5077372;28;20040;-91
2021/09/09 00:04:50;;;;;;;17.13;12.23;;;;;;;16.23;63.41;98929.06;5078010;28;20040;-92
2021/09/09 00:07:18;;;;;;;15.57;11.02;;;;;;;16.23;63.80;98935.28;5079736;28;20035;-91
2021/09/09 00:09:48;;;;;;;16.85;11.73;;;;;;;16.13;64.33;98930.44;5081449;28;20097;-92
2021/09/09 00:12:15;;;;;;;18.95;12.23;;;;;;;16.20;64.14;98934.59;5079493;28;20056;-90
2021/09/09 00:14:40;;;;;;;18.05;11.60;;;;;;;16.22;64.48;98940.72;5078837;28;20036;-91
2021/09/09 00:17:06;;;;;;;17.40;11.82;;;;;;;16.06;64.85;98934.38;5078751;28;20517;-92
2021/09/09 00:19:35;;;;;;;17.23;11.88;;;;;;;16.14;64.65;98949.16;5079137;28;20041;-90
2021/09/09 00:22:01;;;;;;;15.30;11.25;;;;;;;16.10;64.82;98952.91;5079845;28;20036;-94
2021/09/09 00:24:27;;;;;;;17.23;12.50;;;;;;;16.06;64.94;98950.47;5076626;28;20047;-91
2021/09/09 00:26:54;;;;;;;19.33;12.82;;;;;;;15.86;65.23;98932.63;5080566;28;20045;-92
2021/09/09 00:29:20;;;;;;;22.00;12.27;;;;;;;15.86;65.12;98935.28;5079280;28;20860;-94
2021/09/09 00:31:46;;;;;;;16.35;12.32;;;;;;;15.83;65.54;98947.03;5078250;28;20045;-91
2021/09/09 00:34:12;;;;;;;18.70;12.20;;;;;;;15.77;65.62;98940.13;5079141;28;20071;-91
2021/09/09 00:36:38;;;;;;;18.85;12.18;;;;;;;15.79;65.97;98954.34;5077413;28;20041;-92
2021/09/09 00:39:04;;;;;;;17.20;12.35;;;;;;;15.64;65.97;98921.97;5078168;28;20414;-91
2021/09/09 00:41:30;;;;;;;18.70;13.23;;;;;;;15.82;66.12;98943.47;5081146;28;20045;-91
2021/09/09 00:43:58;;;;;;;17.63;13.18;;;;;;;15.82;66.11;98938.09;5079860;28;20041;-92
2021/09/09 00:46:24;;;;;;;19.80;12.88;;;;;;;15.87;66.03;98945.06;5077934;28;20039;-91
2021/09/09 00:48:51;;;;;;;19.67;13.20;;;;;;;15.63;66.04;98914.84;5077882;28;20040;-92
2021/09/09 00:51:17;;;;;;;17.77;12.20;;;;;;;15.60;66.31;98918.53;5079557;28;20029;-92
2021/09/09 00:53:43;;;;;;;18.42;12.38;;;;;;;15.77;66.35;98947.31;5078011;28;20047;-91
2021/09/09 00:56:09;;;;;;;17.83;12.57;;;;;;;15.72;66.74;98952.00;5078557;28;20033;-90
2021/09/09 00:58:36;;;;;;;18.67;12.50;;;;;;;15.68;66.47;98945.00;5079010;28;20052;-91
2021/09/09 01:01:05;;;;;;;19.42;12.35;;;;;;;15.47;66.76;98909.31;5078076;28;20089;-91
2021/09/09 01:03:31;;;;;;;18.45;12.68;;;;;;;15.53;66.80;98933.16;5079085;28;20032;-92
2021/09/09 01:05:57;;;;;;;18.85;12.48;;;;;;;15.49;66.68;98927.06;5078524;28;20447;-92
2021/09/09 01:08:23;;;;;;;18.65;12.60;;;;;;;15.46;66.80;98931.69;5063288;28;20052;-91
2021/09/09 01:10:49;;;;;;;18.50;12.30;;;;;;;15.50;67.24;98944.00;5056512;28;20036;-90
2021/09/09 01:13:14;;;;;;;19.52;12.60;;;;;;;15.33;67.76;98937.59;5058254;28;20033;-93
2021/09/09 01:15:41;;;;;;;17.42;12.52;;;;;;;15.22;67.95;98934.50;5058076;28;20048;-92
2021/09/09 01:18:10;;;;;;;17.60;12.20;;;;;;;15.20;68.05;98934.59;5059075;28;20051;-91
2021/09/09 01:20:36;;;;;;;;;;;;;;;15.32;68.01;98951.06;5054325;28;20041;-93
2021/09/09 01:23:04;;;;;;;18.38;12.43;;;;;;;15.17;68.27;98939.19;5059438;28;19921;-93
2021/09/09 01:25:32;;;;;;;18.25;12.50;;;;;;;15.28;68.30;98961.03;5057899;28;20099;-90
2021/09/09 01:27:58;;;;;;;19.17;13.70;;;;;;;15.17;68.81;98952.59;5057415;28;20067;-92
2021/09/09 01:30:27;;;;;;;19.80;13.55;;;;;;;15.00;69.03;98927.38;5056387;28;20037;-91
2021/09/09 01:32:53;;;;;;;19.13;13.90;;;;;;;15.01;69.55;98944.34;5060539;28;20020;-91
2021/09/09 01:35:20;;;;;;;21.92;14.25;;;;;;;14.95;70.02;98934.75;5059190;28;20079;-92
2021/09/09 01:37:46;;;;;;;21.58;14.60;;;;;;;14.94;70.13;98937.47;5058225;28;20045;-93
2021/09/09 01:40:14;;;;;;;19.02;13.20;;;;;;;14.97;69.54;98937.38;5056091;28;20033;-93
2021/09/09 01:42:42;;;;;;;20.02;13.25;;;;;;;15.18;68.57;98952.53;5059398;28;20375;-92
2021/09/09 01:45:09;;;;;;;18.55;12.52;;;;;;;15.36;67.34;98950.84;5059512;28;20041;-93
2021/09/09 01:47:35;;;;;;;20.27;12.80;;;;;;;15.43;67.50;98959.50;5059563;28;20068;-91
2021/09/09 01:50:02;;;;;;;19.02;13.43;;;;;;;15.34;68.47;98960.75;5059069;28;20056;-93
2021/09/09 01:52:27;;;;;;;18.20;13.00;;;;;;;15.15;68.84;98947.28;5058707;28;20495;-92
2021/09/09 01:54:53;;;;;;;19.67;12.95;;;;;;;15.12;68.42;98949.25;5060177;28;20090;-93
2021/09/09 01:57:19;;;;;;;22.40;14.80;;;;;;;15.15;69.03;98957.13;5059671;28;20032;-93
2021/09/09 01:59:46;;;;;;;19.27;13.30;;;;;;;14.97;68.77;98943.59;5059476;28;20047;-92
2021/09/09 02:02:12;;;;;;;19.88;13.18;;;;;;;14.94;68.88;98940.16;5059407;28;20104;-92
2021/09/09 02:04:38;;;;;;;20.58;13.80;;;;;;;15.09;68.64;98974.31;5058039;28;20107;-91
2021/09/09 02:07:04;;;;;;;19.40;13.18;;;;;;;14.99;69.32;98973.00;5058884;28;20029;-92
2021/09/09 02:09:30;;;;;;;21.58;14.30;;;;;;;14.77;70.38;98962.31;5058623;28;20043;-92
2021/09/09 02:11:56;;;;;;;21.45;13.38;;;;;;;14.75;70.60;98974.88;5057862;28;20106;-90
2021/09/09 02:14:23;;;;;;;21.27;14.50;;;;;;;14.61;71.21;98959.38;5058619;28;20167;-91
2021/09/09 02:16:52;;;;;;;21.98;14.38;;;;;;;14.64;71.51;98964.59;5058068;28;20076;-92
2021/09/09 02:19:17;;;;;;;22.05;14.00;;;;;;;14.56;71.34;98954.19;5060273;28;20064;-92
2021/09/09 02:21:43;;;;;;;20.73;14.10;;;;;;;14.63;71.26;98960.16;5060544;28;20037;-93
2021/09/09 02:24:12;;;;;;;19.23;13.13;;;;;;;14.74;70.80;98967.78;5058558;28;20034;-92
2021/09/09 02:26:38;;;;;;;19.50;13.40;;;;;;;14.64;71.13;98950.34;5056343;28;20547;-93
2021/09/09 02:29:04;;;;;;;19.48;13.80;;;;;;;14.66;70.82;98962.75;5058396;28;20037;-92
2021/09/09 02:31:32;;;;;;;20.50;13.68;;;;;;;14.49;71.03;98931.28;5056581;28;20037;-91
2021/09/09 02:33:59;;;;;;;21.70;13.55;;;;;;;14.55;71.94;98957.81;5063307;28;20053;-91
2021/09/09 02:36:25;;;;;;;20.67;14.00;;;;;;;14.57;71.80;98953.28;5057941;28;20037;-93
2021/09/09 02:38:51;;;;;;;21.08;13.25;;;;;;;14.73;70.56;98966.03;5056795;28;20048;-91
2021/09/09 02:41:16;;;;;;;21.95;13.80;;;;;;;14.62;69.58;98944.19;5056863;28;20041;-91
2021/09/09 02:43:42;;;;;;;22.83;14.68;;;;;;;14.81;68.80;98958.53;5057052;28;20040;-90
2021/09/09 02:46:08;;;;;;;21.77;14.40;;;;;;;14.85;68.77;98952.13;5056796;28;20052;-91
2021/09/09 02:48:34;;;;;;;20.35;13.52;;;;;;;14.90;68.92;98966.22;5061660;28;20175;-92
2021/09/09 02:51:01;;;;;;;20.35;13.55;;;;;;;14.73;69.66;98936.59;5059030;28;20076;-90
2021/09/09 02:53:27;;;;;;;22.80;13.68;;;;;;;14.83;69.42;98958.50;5059915;28;20398;-91
2021/09/09 02:55:53;;;;;;;22.13;14.48;;;;;;;14.86;69.20;98967.28;5060660;28;20041;-93
2021/09/09 02:58:22;;;;;;;20.67;14.10;;;;;;;14.66;69.15;98935.09;5060550;28;20506;-93
2021/09/09 03:00:48;;;;;;;18.77;12.75;;;;;;;14.80;69.15;98954.13;5058713;28;20033;-93
2021/09/09 03:03:14;;;;;;;20.38;13.55;;;;;;;14.82;68.61;98944.22;5058308;28;20406;-92
2021/09/09 03:05:39;;;;;;;22.13;14.18;;;;;;;14.80;68.84;98946.09;5056823;28;20100;-92
2021/09/09 03:08:07;;;;;;;20.20;14.52;;;;;;;14.71;69.58;98947.34;5055964;28;20076;-94
2021/09/09 03:10:32;;;;;;;21.20;14.73;;;;;;;14.67;69.49;98951.09;5057084;28;20029;-92
2021/09/09 03:12:58;;;;;;;21.08;15.13;;;;;;;14.79;68.72;98953.28;5056129;28;20071;-93
2021/09/09 03:15:24;;;;;;;19.58;13.18;;;;;;;14.88;68.15;98933.28;5054457;28;20124;-91
2021/09/09 03:17:51;;;;;;;22.60;14.18;;;;;;;14.98;67.81;98929.28;5057372;28;21090;-91
2021/09/09 03:20:17;;;;;;;20.27;13.52;;;;;;;15.09;67.42;98944.88;5058672;28;20127;-92
2021/09/09 03:22:43;;;;;;;18.80;13.00;;;;;;;14.95;68.06;98918.69;5058315;28;20052;-94
2021/09/09 03:25:11;;;;;;;21.27;14.07;;;;;;;15.07;68.21;98935.16;5058087;28;20119;-93
2021/09/09 03:27:37;;;;;;;17.55;13.32;;;;;;;15.03;68.27;98944.25;5057977;28;20098;-91
2021/09/09 03:30:03;;;;;;;18.67;13.23;;;;;;;15.00;68.57;98937.22;5056076;28;20790;-90
2021/09/09 03:32:29;;;;;;;21.02;13.43;;;;;;;15.00;68.34;98948.81;5058189;28;20128;-92
2021/09/09 03:34:55;;;;;;;18.63;13.93;;;;;;;14.87;68.85;98944.03;5059660;28;20494;-92
2021/09/09 03:37:24;;;;;;;19.98;14.30;;;;;;;14.72;69.22;98934.84;5060561;28;20545;-92
2021/09/09 03:39:52;;;;;;;19.77;13.18;;;;;;;14.68;69.73;98938.56;5059408;28;20041;-92
2021/09/09 03:42:20;;;;;;;18.67;13.45;;;;;;;14.62;70.02;98957.59;5059155;28;20422;-92
2021/09/09 03:44:47;;;;;;;18.83;13.27;;;;;;;14.45;70.71;98944.84;5059282;28;20059;-91
2021/09/09 03:47:16;;;;;;;19.65;13.85;;;;;;;14.30;71.02;98932.94;5059666;28;20052;-93
2021/09/09 03:49:42;;;;;;;21.40;13.88;;;;;;;14.18;71.59;98947.66;5058550;28;20051;-92
2021/09/09 03:52:08;;;;;;;21.08;14.23;;;;;;;14.12;71.81;98946.09;5059900;28;20041;-91
2021/09/09 03:54:33;;;;;;;21.00;14.27;;;;;;;14.03;71.84;98935.78;5058332;28;20061;-93
2021/09/09 03:56:59;;;;;;;20.23;13.73;;;;;;;14.22;71.56;98943.94;5059723;28;20044;-92
2021/09/09 03:59:26;;;;;;;20.10;13.32;;;;;;;14.32;71.27;98949.81;5059956;28;20041;-93
2021/09/09 04:01:52;;;;;;;21.33;14.20;;;;;;;14.24;71.21;98935.84;5058305;28;20052;-93
2021/09/09 04:04:21;;;;;;;19.10;13.48;;;;;;;14.23;71.45;98950.19;5059360;28;20033;-92
2021/09/09 04:06:47;;;;;;;23.20;12.65;;;;;;;14.16;71.87;98938.81;5059443;28;20513;-93
2021/09/09 04:09:13;;;;;;;22.30;15.15;;;;;;;14.24;71.86;98957.25;5058357;28;20041;-90
2021/09/09 04:11:38;;;;;;;20.80;14.52;;;;;;;14.20;71.62;98952.94;5057734;28;20036;-92
2021/09/09 04:14:04;;;;;;;19.52;14.15;;;;;;;14.18;71.46;98945.88;5058855;28;20045;-91
2021/09/09 04:16:31;;;;;;;20.80;13.38;;;;;;;14.25;70.98;98948.28;5056270;28;20037;-92
2021/09/09 04:18:58;;;;;;;22.17;14.43;;;;;;;14.38;70.55;98965.63;5057464;28;20048;-92
2021/09/09 04:21:24;;;;;;;23.40;14.82;;;;;;;14.22;70.87;98945.75;5056217;28;20112;-91
2021/09/09 04:23:50;;;;;;;23.00;15.48;;;;;;;14.01;71.83;98953.69;5056461;28;20061;-90
2021/09/09 04:26:15;;;;;;;21.88;15.70;;;;;;;13.84;72.68;98953.44;5057087;28;20107;-92
2021/09/09 04:28:41;;;;;;;25.88;15.40;;;;;;;13.67;73.34;98954.06;5055609;28;20064;-91
2021/09/09 04:31:07;;;;;;;25.92;16.83;;;;;;;13.56;73.51;98943.75;5055131;28;20056;-91
2021/09/09 04:33:34;;;;;;;25.17;16.17;;;;;;;13.63;73.41;98944.41;5056789;28;20033;-90
2021/09/09 04:36:00;;;;;;;24.90;15.95;;;;;;;13.69;72.97;98947.72;5056496;28;20095;-91
2021/09/09 04:38:26;;;;;;;25.95;16.52;;;;;;;13.55;73.48;98942.00;5056881;28;20430;-91
2021/09/09 04:40:52;;;;;;;23.27;16.35;;;;;;;13.54;73.76;98956.31;5056902;28;20060;-90
2021/09/09 04:43:18;;;;;;;27.25;15.82;;;;;;;13.63;73.68;98965.78;5058094;28;20041;-91
2021/09/09 04:45:43;;;;;;;22.45;15.45;;;;;;;13.62;73.53;98954.22;5056277;28;20108;-92
2021/09/09 04:48:09;;;;;;;22.42;14.98;;;;;;;13.62;73.58;98953.34;5057390;28;20053;-91
2021/09/09 04:50:37;;;;;;;23.20;15.88;;;;;;;13.72;73.44;98958.28;5058055;28;20490;-91
2021/09/09 04:53:03;;;;;;;24.88;15.35;;;;;;;13.70;73.34;98951.25;5052534;28;20049;-91
2021/09/09 04:55:29;;;;;;;24.70;14.60;;;;;;;13.79;73.00;98969.63;5058683;28;20037;-93
2021/09/09 04:57:55;;;;;;;22.48;15.32;;;;;;;13.67;72.95;98946.03;5057003;28;20048;-92
2021/09/09 05:00:21;;;;;;;23.27;14.48;;;;;;;13.63;73.69;98947.06;5058499;28;20044;-94
2021/09/09 05:02:48;;;;;;;21.70;14.48;;;;;;;13.64;73.64;98952.38;5059055;28;20036;-93
2021/09/09 05:05:16;;;;;;;23.63;15.18;;;;;;;13.73;74.13;98973.41;5058045;28;20100;-92
2021/09/09 05:07:45;;;;;;;22.45;15.35;;;;;;;13.59;73.92;98954.31;5059601;28;20083;-92
2021/09/09 05:10:12;;;;;;;24.33;15.23;;;;;;;13.71;73.59;98955.69;5059016;28;20079;-92
2021/09/09 05:12:38;;;;;;;23.98;14.82;;;;;;;13.76;73.49;98967.06;5059711;28;20048;-92
2021/09/09 05:15:07;;;;;;;23.23;14.85;;;;;;;13.86;73.53;98970.28;5058563;28;20394;-92
2021/09/09 05:17:36;;;;;;;22.33;14.65;;;;;;;13.84;73.63;98969.47;5057300;28;20048;-91
2021/09/09 05:20:02;;;;;;;21.90;15.00;;;;;;;13.86;73.61;98968.47;5057887;28;20021;-92
2021/09/09 05:22:33;;;;;;;22.50;15.45;;;;;;;13.90;73.42;98969.22;5058702;28;20072;-91
2021/09/09 05:25:01;;;;;;;21.90;15.30;;;;;;;13.93;73.41;98964.66;5057796;28;20065;-93
2021/09/09 05:27:27;;;;;;;23.20;15.32;;;;;;;14.04;73.55;98972.25;5057947;28;20065;-92
2021/09/09 05:29:53;;;;;;;25.23;16.42;;;;;;;13.98;73.12;98964.47;5058602;28;20048;-90
2021/09/09 05:32:18;;;;;;;23.05;15.50;;;;;;;14.09;73.31;98970.28;5057758;28;20048;-91
2021/09/09 05:34:47;;;;;;;23.05;15.25;;;;;;;14.07;73.17;98965.91;5057303;28;20037;-92
2021/09/09 05:37:13;;;;;;;23.33;16.08;;;;;;;14.17;73.62;98965.50;5057543;28;20052;-93
2021/09/09 05:39:39;;;;;;;23.52;15.65;;;;;;;14.38;72.92;98984.34;5057526;28;20128;-92
2021/09/09 05:42:06;;;;;;;22.35;15.30;;;;;;;14.53;72.06;98991.78;5059379;28;20045;-93
2021/09/09 05:44:32;;;;;;;24.20;15.43;;;;;;;14.55;71.65;98968.53;5059142;28;20043;-92
2021/09/09 05:47:01;;;;;;;24.38;16.05;;;;;;;14.65;71.31;98971.69;5057409;28;20128;-93
2021/09/09 05:49:27;;;;;;;23.10;14.63;;;;;;;14.79;70.58;98976.50;5055963;28;20060;-91
2021/09/09 05:51:53;;;;;;;20.17;13.77;;;;;;;14.97;70.05;98974.88;5056044;28;20037;-93
2021/09/09 05:54:19;;;;;;;22.25;14.65;;;;;;;15.15;69.10;98989.28;5054933;28;20045;-92
2021/09/09 05:56:44;;;;;;;26.45;15.82;;;;;;;15.08;69.13;98983.31;5056030;28;20521;-92
2021/09/09 05:59:12;;;;;;;26.05;15.10;;;;;;;15.09;68.64;98970.78;5053666;28;20069;-93
2021/09/09 06:01:38;;;;;;;24.40;15.25;;;;;;;15.13;68.60;98975.06;5053788;28;20457;-93
2021/09/09 06:04:09;;;;;;;23.13;15.55;;;;;;;15.20;68.40;98981.91;5055520;28;20041;-93
2021/09/09 06:06:35;;;;;;;23.20;15.20;;;;;;;15.21;67.82;98964.91;5055536;28;20041;-92
2021/09/09 06:09:01;;;;;;;23.20;15.25;;;;;;;15.47;67.18;98977.19;5054677;28;20151;-92
2021/09/09 06:11:27;;;;;;;22.08;15.43;;;;;;;15.56;66.83;98984.81;5054273;28;20041;-93
2021/09/09 06:13:53;;;;;;;26.38;15.98;;;;;;;15.65;66.77;98988.91;5054371;28;20721;-94
2021/09/09 06:16:21;;;;;;;22.55;14.60;;;;;;;15.77;65.86;98982.16;5051785;28;20037;-91
2021/09/09 06:18:47;;;;;;;20.13;13.85;;;;;;;15.84;65.47;98964.84;5055031;28;20045;-91
2021/09/09 06:21:13;;;;;;;23.27;14.50;;;;;;;16.08;65.06;98970.03;5054295;28;20120;-91
2021/09/09 06:23:38;;;;;;;21.25;14.43;;;;;;;16.18;64.82;98966.84;5055065;28;20047;-93
2021/09/09 06:26:04;;;;;;;25.95;15.00;;;;;;;16.34;64.00;98971.50;5055706;28;20449;-93
2021/09/09 06:28:30;;;;;;;24.70;13.98;;;;;;;16.43;64.48;98958.50;5054941;28;20041;-92
2021/09/09 06:30:56;;;;;;;21.33;14.20;;;;;;;16.67;63.20;98970.81;5059196;28;20052;-94
2021/09/09 06:33:23;;;;;;;22.27;14.50;;;;;;;16.75;62.78;98972.19;5056708;28;20033;-93
2021/09/09 06:35:49;;;;;;;25.67;14.93;;;;;;;16.76;63.02;98986.47;5055247;28;20382;-93
2021/09/09 06:38:15;;;;;;;24.98;14.13;;;;;;;16.82;62.52;98956.66;5056339;28;20116;-92
2021/09/09 06:40:41;;;;;;;18.80;13.43;;;;;;;17.07;62.10;98971.53;5057465;28;20128;-90
2021/09/09 06:43:07;;;;;;;19.42;13.70;;;;;;;17.29;61.64;98958.78;5057765;28;20037;-93
2021/09/09 06:45:33;;;;;;;21.85;14.13;;;;;;;17.53;60.46;98967.38;5054104;28;20037;-93
2021/09/09 06:47:58;;;;;;;21.15;14.13;;;;;;;17.75;59.33;98955.50;5057934;28;20501;-93
2021/09/09 06:50:26;;;;;;;23.77;15.38;;;;;;;17.65;59.42;98944.34;5055333;28;20041;-91
2021/09/09 06:52:52;;;;;;;21.90;15.13;;;;;;;17.37;60.12;98959.25;5058921;28;20446;-90
2021/09/09 06:55:17;;;;;;;24.17;15.10;;;;;;;17.42;60.03;98967.94;5060211;28;20040;-90
2021/09/09 06:57:43;;;;;;;20.98;14.57;;;;;;;17.15;60.77;98956.78;5059137;28;20048;-93
2021/09/09 07:00:10;;;;;;;21.40;14.82;;;;;;;17.45;60.13;98953.47;5058492;28;20371;-91
2021/09/09 07:02:36;;;;;;;20.65;13.23;;;;;;;17.36;59.58;98948.56;5059008;28;20063;-91
2021/09/09 07:05:02;;;;;;;19.73;13.80;;;;;;;17.62;59.45;98949.88;5057048;28;20041;-90
2021/09/09 07:07:29;;;;;;;17.85;13.50;;;;;;;17.94;58.87;98948.19;5058880;28;20057;-91
2021/09/09 07:09:58;;;;;;;18.85;13.13;;;;;;;18.16;58.11;98947.03;5059287;28;20053;-92
2021/09/09 07:12:24;;;;;;;18.10;13.02;;;;;;;18.58;57.25;98959.88;5059092;28;20045;-93
2021/09/09 07:14:50;;;;;;;18.55;13.02;;;;;;;18.63;56.21;98960.50;5059641;28;20037;-92
2021/09/09 07:17:16;;;;;;;19.95;12.98;;;;;;;19.00;55.52;98966.50;5057176;28;20478;-95
2021/09/09 07:19:42;;;;;;;21.20;14.18;;;;;;;18.77;55.92;98940.84;5059951;28;20041;-93
2021/09/09 07:22:08;;;;;;;18.25;12.85;;;;;;;19.01;55.76;98943.09;5062339;28;20506;-93
2021/09/09 07:24:35;;;;;;;17.40;12.02;;;;;;;19.28;54.88;98954.09;5058795;28;20040;-94
2021/09/09 07:27:01;;;;;;;20.27;12.55;;;;;;;19.53;54.76;98953.47;5062136;28;20037;-94
2021/09/09 07:29:30;;;;;;;18.90;13.45;;;;;;;19.76;53.78;98949.41;5061698;28;20101;-94
2021/09/09 07:31:55;;;;;;;;;;;;;;;20.07;52.57;98969.06;5060408;28;20033;-93
2021/09/09 07:34:21;;;;;;;17.73;12.20;;;;;;;20.27;52.07;98959.69;5059232;28;19928;-93
2021/09/09 07:36:47;;;;;;;18.15;12.35;;;;;;;20.35;52.34;98951.97;5057768;28;20064;-92
2021/09/09 07:39:13;;;;;;;18.90;12.73;;;;;;;20.53;51.62;98944.50;5058601;28;20041;-92
2021/09/09 07:41:40;;;;;;;17.65;11.73;;;;;;;20.65;51.00;98951.88;5061569;28;20028;-94
2021/09/09 07:44:06;;;;;;;18.75;12.02;;;;;;;20.77;50.76;98939.38;5059008;28;20060;-94
2021/09/09 07:46:34;;;;;;;16.35;11.27;;;;;;;21.02;49.97;98960.22;5057990;28;20049;-94
2021/09/09 07:48:59;;;;;;;23.02;12.43;;;;;;;21.15;50.51;98949.47;5058808;28;20095;-92
2021/09/09 07:51:25;;;;;;;20.27;12.68;;;;;;;21.24;49.82;98946.13;5059182;28;20048;-93
2021/09/09 07:53:52;;;;;;;16.17;12.10;;;;;;;21.10;49.36;98949.78;5058236;28;20040;-91
2021/09/09 07:56:18;;;;;;;18.70;12.10;;;;;;;21.22;49.42;98955.31;5058807;28;20090;-96
2021/09/09 07:58:48;;;;;;;17.50;12.30;;;;;;;21.17;49.96;98935.84;5059575;28;20045;-93
2021/09/09 08:01:16;;;;;;;19.33;12.57;;;;;;;21.28;49.63;98944.09;5059981;28;20152;-94
2021/09/09 08:03:42;;;;;;;20.98;12.23;;;;;;;21.26;49.72;98941.47;5058623;28;20040;-94
2021/09/09 08:06:14;;;;;;;18.17;11.75;;;;;;;21.31;49.11;98919.53;5059392;28;20049;-93
2021/09/09 08:08:40;;;;;;;17.77;11.93;;;;;;;21.48;49.22;98938.19;5058292;28;20516;-92
2021/09/09 08:11:06;;;;;;;16.13;11.82;;;;;;;21.53;49.24;98938.75;5056976;28;20129;-92
2021/09/09 08:13:32;;;;;;;18.10;11.60;;;;;;;21.74;48.57;98949.03;5056259;28;20036;-93
2021/09/09 08:16:00;;;;;;;61.10;15.77;;;;;;;21.93;48.60;98940.50;5054329;28;20414;-93
2021/09/09 08:18:26;;;;;;;17.50;11.43;;;;;;;22.13;47.54;98939.06;5055608;28;20045;-91
2021/09/09 08:20:54;;;;;;;15.85;10.98;;;;;;;22.28;47.18;98942.53;5055583;28;20041;-92
2021/09/09 08:23:20;;;;;;;21.10;11.65;;;;;;;22.36;46.79;98937.44;5057453;28;20048;-92
2021/09/09 08:25:46;;;;;;;15.48;10.98;;;;;;;22.55;46.61;98945.06;5056165;28;20068;-92
2021/09/09 08:28:11;;;;;;;15.20;12.02;;;;;;;22.61;46.56;98949.19;5057067;28;20040;-93
2021/09/09 08:30:37;;;;;;;13.98;10.75;;;;;;;22.67;46.14;98937.88;5054966;28;20445;-92
2021/09/09 08:33:05;;;;;;;16.92;11.13;;;;;;;22.87;45.94;98937.25;5057006;28;20044;-92
2021/09/09 08:35:37;;;;;;;17.95;11.85;;;;;;;22.98;45.91;98928.31;5055525;28;20042;-93
2021/09/09 08:38:03;;;;;;;34.00;12.80;;;;;;;23.10;45.19;98935.56;5056122;28;20037;-92
2021/09/09 08:40:30;;;;;;;17.95;11.45;;;;;;;23.08;44.83;98920.38;5053363;28;20037;-93
2021/09/09 08:42:56;;;;;;;14.68;11.85;;;;;;;23.28;44.93;98935.13;5057258;28;20049;-94
2021/09/09 08:45:22;;;;;;;15.80;10.90;;;;;;;22.94;45.63;98930.41;5055399;28;20047;-93
2021/09/09 08:47:51;;;;;;;14.15;11.88;;;;;;;23.18;45.04;98926.81;5058119;28;20037;-91
2021/09/09 08:50:18;;;;;;;16.35;12.35;;;;;;;23.42;44.33;98934.94;5059197;28;20490;-93
2021/09/09 08:52:45;;;;;;;15.25;11.65;;;;;;;23.63;43.75;98937.81;5057638;28;20083;-95
2021/09/09 08:55:12;;;;;;;15.95;11.25;;;;;;;23.73;43.52;98935.25;5055477;28;20037;-92
2021/09/09 08:57:37;;;;;;;16.75;11.38;;;;;;;23.75;43.44;98936.91;5059114;28;20045;-93
2021/09/09 09:00:09;;;;;;;15.98;11.07;;;;;;;23.77;43.08;98925.94;5055682;28;21559;-91
2021/09/09 09:02:50;;;;;;;16.33;11.02;;;;;;;23.16;44.10;98931.50;5057863;28;20041;-92
2021/09/09 09:05:17;;;;;;;13.85;11.35;;;;;;;23.54;43.54;98933.97;5055021;28;20107;-92
2021/09/09 09:07:43;;;;;;;16.63;10.93;;;;;;;23.76;42.57;98927.75;5056046;28;20048;-92
2021/09/09 09:10:10;;;;;;;13.63;10.30;;;;;;;23.92;42.50;98923.81;5056265;28;20107;-93
2021/09/09 09:12:40;;;;;;;14.90;10.60;;;;;;;24.01;41.87;98928.53;5056646;28;20021;-93
2021/09/09 09:15:14;;;;;;;13.02;9.82;;;;;;;24.02;41.26;98913.94;5054665;28;20513;-95
2021/09/09 09:17:54;;;;;;;13.50;10.25;;;;;;;24.03;41.99;98910.25;5059518;28;20037;-91
2021/09/09 09:20:21;;;;;;;13.35;10.23;;;;;;;24.33;41.31;98923.22;5054536;28;20111;-92
2021/09/09 09:22:47;;;;;;;18.38;10.93;;;;;;;24.37;41.01;98916.50;5056408;28;20114;-93
2021/09/09 09:25:14;;;;;;;13.77;9.77;;;;;;;24.44;40.79;98911.47;5058239;28;20474;-95
2021/09/09 09:27:45;;;;;;;14.55;10.43;;;;;;;24.33;41.31;98912.34;5058776;28;20037;-93
2021/09/09 09:30:12;;;;;;;12.48;10.10;;;;;;;24.49;40.09;98909.25;5054570;28;20047;-92
2021/09/09 09:32:45;;;;;;;18.08;10.45;;;;;;;24.86;40.52;98913.50;5054939;28;20041;-93
2021/09/09 09:35:14;;;;;;;17.00;10.38;;;;;;;25.02;39.80;98894.88;5054957;28;20056;-94
2021/09/09 09:38:02;;;;;;;16.88;10.80;;;;;;;25.29;39.79;98907.19;5053197;28;20036;-92
2021/09/09 09:40:31;;;;;;;14.13;10.25;;;;;;;24.58;40.55;98903.06;5052133;28;20402;-91
2021/09/09 09:42:57;;;;;;;;;;;;;;;24.90;40.48;98904.94;5054173;28;20132;-91
2021/09/09 09:45:23;;;;;;;13.27;10.73;;;;;;;24.75;40.50;98901.66;5050993;28;19920;-93
2021/09/09 09:47:49;;;;;;;16.40;10.30;;;;;;;24.88;40.10;98890.63;5053478;28;20039;-93
2021/09/09 09:50:17;;;;;;;15.07;10.88;;;;;;;25.12;39.42;98901.28;5055017;28;20136;-93
2021/09/09 09:52:47;;;;;;;13.83;10.13;;;;;;;25.26;39.47;98888.38;5056609;28;20107;-93
2021/09/09 09:55:15;;;;;;;14.07;10.02;;;;;;;25.15;38.78;98881.09;5052084;28;20037;-94
2021/09/09 09:57:51;;;;;;;13.70;10.03;;;;;;;25.03;39.90;98891.19;5055144;28;20058;-93
2021/09/09 10:00:17;;;;;;;14.57;9.98;;;;;;;24.84;39.85;98874.69;5053361;28;20047;-93
2021/09/09 10:02:43;;;;;;;13.07;10.60;;;;;;;25.00;38.82;98875.09;5057292;28;20037;-94
2021/09/09 10:05:11;;;;;;;12.10;9.70;;;;;;;25.12;38.51;98875.94;5055484;28;20041;-95
2021/09/09 10:07:37;;;;;;;11.70;9.50;;;;;;;25.28;38.30;98868.19;5056678;28;20047;-93
2021/09/09 10:10:03;;;;;;;14.50;9.73;;;;;;;25.44;37.53;98851.41;5053362;28;20037;-94
2021/09/09 10:12:31;;;;;;;12.52;8.90;;;;;;;25.74;37.49;98858.75;5056217;28;20052;-92
2021/09/09 10:15:01;;;;;;;13.00;9.43;;;;;;;25.85;36.77;98846.91;5055794;28;20081;-93
2021/09/09 10:17:27;;;;;;;14.07;9.95;;;;;;;25.78;36.69;98856.59;5055081;28;20339;-94
2021/09/09 10:19:54;;;;;;;13.93;10.20;;;;;;;25.54;37.50;98863.19;5055993;28;20116;-93
2021/09/09 10:22:22;;;;;;;11.85;9.45;;;;;;;25.49;38.47;98853.72;5054195;28;20463;-95
2021/09/09 10:24:49;;;;;;;14.32;10.10;;;;;;;25.39;37.85;98840.03;5058031;28;20045;-94
2021/09/09 10:27:17;;;;;;;13.77;9.57;;;;;;;25.56;38.10;98842.13;5056303;28;20052;-92
2021/09/09 10:29:53;;;;;;;11.95;9.73;;;;;;;25.72;37.48;98843.50;5057113;28;20087;-92
2021/09/09 10:32:50;;;;;;;12.90;9.65;;;;;;;25.68;38.30;98848.38;5053620;28;20059;-92
2021/09/09 10:35:37;;;;;;;11.82;9.43;;;;;;;25.87;37.59;98841.28;5052560;28;20048;-91
2021/09/09 10:38:34;;;;;;;12.95;10.02;;;;;;;26.12;36.78;98834.53;5051380;28;20110;-95
2021/09/09 10:41:02;;;;;;;12.73;9.65;;;;;;;26.22;36.49;98824.53;5054304;28;20517;-92
2021/09/09 10:43:45;;;;;;;;;;;;;;;26.10;36.72;98825.63;5059095;28;20045;-93
2021/09/09 10:46:13;;;;;;;14.07;9.98;;;;;;;26.20;37.00;98816.50;5055775;28;19921;-91
2021/09/09 10:48:39;;;;;;;11.65;9.50;;;;;;;26.19;36.65;98800.25;5058601;28;20072;-95
2021/09/09 10:54:16;;;;;;;16.80;9.13;;;;;;;26.21;36.00;98811.88;5090086;27;20378;-93
2021/09/09 10:56:42;;;;;;;11.90;9.45;;;;;;;26.20;36.36;98796.56;5089837;28;20563;-93
2021/09/09 10:59:13;;;;;;;13.90;9.43;;;;;;;26.37;36.85;98805.88;5090286;28;20378;-93
2021/09/09 11:04:42;;;;;;;13.57;9.80;;;;;;;26.49;35.85;98790.28;5159481;27;20385;-91
2021/09/09 11:07:20;;;;;;;12.45;9.88;;;;;;;26.47;35.10;98798.59;5131263;27;20043;-94
2021/09/09 11:09:46;;;;;;;14.93;10.38;;;;;;;26.33;36.05;98779.94;5130733;28;20557;-94
2021/09/09 11:12:12;;;;;;;11.63;9.27;;;;;;;26.50;35.62;98789.25;5131442;28;20039;-95
2021/09/09 11:14:38;;;;;;;11.65;9.35;;;;;;;26.09;35.28;98791.19;5136053;27;20046;-93
2021/09/09 11:17:04;;;;;;;14.25;9.55;;;;;;;26.09;35.66;98773.00;5132312;27;20051;-92
2021/09/09 11:19:31;;;;;;;12.52;9.45;;;;;;;25.93;35.72;98776.25;5132443;27;20048;-93
2021/09/09 11:22:04;;;;;;;15.13;9.63;;;;;;;26.00;34.76;98771.97;5131146;28;20046;-92
2021/09/09 11:24:34;;;;;;;15.05;10.43;;;;;;;26.21;34.32;98790.09;5131289;27;20043;-92
2021/09/09 11:27:00;;;;;;;15.27;9.70;;;;;;;26.27;34.43;98778.63;5131312;27;20041;-93